LFPG/CDG METAR and TAF weather

Enter ICAO airport designator
Station Type Date Time Source
LFPG METAR 2021/09/28 16:00 UTC NOAA

LFPG 281600Z 19009KT 9999 FEW048 SCT220 BKN260 19/07 Q1019 NOSIG


Station Type Date Time Source
LFPG Decoded METAR 2021/09/28 16:00 UTC NOAA

Paris-Aeroport Charles De Gaulle, France (LFPG) 49-01N 002-32E 109M
Sep 28, 2021 - 12:00 PM EDT / 2021.09.28 1600 UTC
Wind: from the S (190 degrees) at 10 MPH (9 KT):0
Visibility: greater than 7 mile(s):0
Sky conditions: mostly cloudy
Temperature: 66 F (19 C)
Dew Point: 44 F (7 C)
Relative Humidity: 45%
Pressure (altimeter): 30.09 in. Hg (1019 hPa)
ob: LFPG 281600Z 19009KT 9999 FEW048 SCT220 BKN260 19/07 Q1019 NOSIG
cycle: 16

Station Type Date Time Source
LFPG TAF 2021/09/28 12:21 UTC NOAA

TAF LFPG 281100Z 2812/2918 19006KT CAVOK TX19/2814Z TN12/2906Z PROB40
TEMPO 2823/2904 4000 -RA BKN020 BKN060 PROB40
TEMPO 2905/2907 4000 SHRA SCT020TCU
BECMG 2908/2910 27015G25KT PROB40 2912/2915 -SHRA SCT030TCU

Example: see airport list